createdAt,value
2019-05-30T00:00:34.850Z,38.93
2019-05-30T00:03:04.458Z,38.98
2019-05-30T00:05:33.946Z,38.96
2019-05-30T00:08:04.448Z,39.00
2019-05-30T00:10:34.106Z,39.01
2019-05-30T00:13:05.027Z,39.11
2019-05-30T00:15:35.136Z,39.14
2019-05-30T00:18:05.079Z,39.20
2019-05-30T00:20:34.647Z,39.32
2019-05-30T00:23:04.230Z,39.31
2019-05-30T00:25:33.765Z,39.37
2019-05-30T00:28:05.112Z,39.46
2019-05-30T00:30:34.822Z,39.46
2019-05-30T00:33:05.180Z,39.49
2019-05-30T00:35:34.800Z,39.50
2019-05-30T00:38:04.432Z,39.56
2019-05-30T00:40:33.957Z,39.59
2019-05-30T00:43:04.242Z,39.64
2019-05-30T00:45:33.803Z,39.65
2019-05-30T00:48:04.371Z,39.72
2019-05-30T00:50:34.082Z,39.77
2019-05-30T00:53:05.246Z,39.77
2019-05-30T00:55:35.034Z,39.79
2019-05-30T00:58:04.883Z,39.84
2019-05-30T01:00:43.569Z,39.88
2019-05-30T01:03:08.454Z,39.91
2019-05-30T01:05:37.174Z,39.94
2019-05-30T01:08:07.231Z,39.94
2019-05-30T01:10:36.736Z,39.97
2019-05-30T01:13:07.340Z,39.98
2019-05-30T01:15:36.822Z,40.06
2019-05-30T01:18:07.374Z,40.07
2019-05-30T01:20:37.003Z,40.13
2019-05-30T01:23:07.501Z,40.21
2019-05-30T01:25:37.077Z,40.21
2019-05-30T01:28:07.890Z,40.28
2019-05-30T01:30:37.527Z,40.29
2019-05-30T01:33:08.068Z,40.36
2019-05-30T01:35:37.682Z,40.28
2019-05-30T01:38:08.071Z,40.34
2019-05-30T01:40:37.729Z,40.36
2019-05-30T01:43:08.325Z,40.42
2019-05-30T01:45:37.984Z,40.48
2019-05-30T01:48:08.619Z,40.48
2019-05-30T01:50:38.583Z,40.56
2019-05-30T01:53:08.886Z,40.56
2019-05-30T01:55:38.540Z,40.67
2019-05-30T01:58:09.068Z,40.66
2019-05-30T02:00:39.767Z,40.71
2019-05-30T02:03:09.808Z,40.74
2019-05-30T02:05:44.377Z,40.77
2019-05-30T02:08:13.931Z,40.85
2019-05-30T02:10:44.207Z,40.83
2019-05-30T02:13:13.770Z,40.91
2019-05-30T02:15:43.743Z,40.83
2019-05-30T02:18:13.273Z,40.91
2019-05-30T02:20:42.803Z,40.90
2019-05-30T02:23:12.409Z,40.94
2019-05-30T02:25:42.301Z,41.00
2019-05-30T02:28:11.929Z,41.01
2019-05-30T02:30:41.482Z,41.06
2019-05-30T02:33:12.829Z,41.10
2019-05-30T02:35:42.258Z,41.13
2019-05-30T02:38:12.130Z,41.17
2019-05-30T02:40:41.722Z,41.18
2019-05-30T02:43:12.383Z,41.24
2019-05-30T02:45:42.071Z,41.28
2019-05-30T02:48:12.170Z,41.35
2019-05-30T02:50:42.428Z,41.40
2019-05-30T02:53:13.487Z,41.38
2019-05-30T02:55:43.445Z,41.46
2019-05-30T02:58:13.281Z,41.45
2019-05-30T03:00:42.994Z,41.44
2019-05-30T03:03:14.578Z,41.44
2019-05-30T03:05:43.836Z,41.50
2019-05-30T03:08:31.242Z,41.48
2019-05-30T03:11:02.548Z,41.49
2019-05-30T03:13:32.015Z,41.50
2019-05-30T03:16:02.854Z,41.52
2019-05-30T03:18:33.289Z,41.56
2019-05-30T03:21:03.260Z,41.64
2019-05-30T03:23:33.317Z,41.65
2019-05-30T03:26:04.772Z,41.70
2019-05-30T03:28:34.438Z,41.68
2019-05-30T03:31:10.410Z,41.73
2019-05-30T03:33:41.757Z,41.77
2019-05-30T03:36:15.734Z,41.76
2019-05-30T03:38:38.324Z,41.83
2019-05-30T03:41:11.289Z,41.91
2019-05-30T03:43:39.118Z,41.83
2019-05-30T03:46:14.859Z,41.93
2019-05-30T03:48:44.174Z,41.99
2019-05-30T03:51:15.101Z,41.99
2019-05-30T03:53:44.792Z,42.00
2019-05-30T03:56:17.124Z,42.04
2019-05-30T03:58:53.432Z,42.16
2019-05-30T04:01:28.191Z,42.15
2019-05-30T04:04:16.403Z,42.11
2019-05-30T04:07:04.320Z,42.13
2019-05-30T04:09:34.356Z,42.18
2019-05-30T04:12:12.713Z,42.26
2019-05-30T04:14:43.705Z,42.30
2019-05-30T04:17:15.246Z,42.36
2019-05-30T04:19:44.820Z,42.29
2019-05-30T04:22:15.508Z,42.41
2019-05-30T04:24:45.182Z,42.49
2019-05-30T04:27:16.088Z,42.45
2019-05-30T04:29:46.260Z,42.45
2019-05-30T04:32:16.574Z,42.54
2019-05-30T04:34:46.182Z,42.53
2019-05-30T04:37:17.198Z,42.53
2019-05-30T04:39:46.992Z,42.53
2019-05-30T04:42:18.184Z,42.56
2019-05-30T04:44:47.749Z,42.52
2019-05-30T04:47:18.459Z,42.59
2019-05-30T04:49:48.516Z,42.67
2019-05-30T04:52:23.900Z,42.67
2019-05-30T04:54:49.299Z,42.74
2019-05-30T04:57:25.584Z,42.75
2019-05-30T04:59:50.516Z,42.73
2019-05-30T05:02:21.078Z,42.83
2019-05-30T05:04:51.309Z,42.86
2019-05-30T05:07:22.046Z,42.96
2019-05-30T05:09:51.750Z,42.95
2019-05-30T05:12:22.422Z,42.97
2019-05-30T05:14:52.102Z,43.02
2019-05-30T05:17:23.116Z,43.12
2019-05-30T05:19:52.860Z,43.06
2019-05-30T05:22:23.327Z,43.10
2019-05-30T05:24:53.033Z,43.16
2019-05-30T05:27:23.822Z,43.10
2019-05-30T05:29:53.581Z,43.09
2019-05-30T05:32:23.115Z,43.17
2019-05-30T05:34:52.660Z,43.24
2019-05-30T05:37:23.266Z,43.21
2019-05-30T05:39:53.037Z,43.21
2019-05-30T05:42:23.766Z,43.24
2019-05-30T05:44:54.153Z,43.23
2019-05-30T05:47:24.613Z,43.27
2019-05-30T05:49:54.607Z,43.29
2019-05-30T05:52:24.918Z,43.32
2019-05-30T05:54:54.813Z,43.35
2019-05-30T05:57:25.022Z,43.33
2019-05-30T05:59:54.584Z,43.36
2019-05-30T06:02:25.185Z,43.50
2019-05-30T06:04:54.849Z,43.38
2019-05-30T06:07:24.618Z,43.38
2019-05-30T06:09:54.220Z,43.44
2019-05-30T06:12:23.936Z,43.41
2019-05-30T06:14:53.488Z,43.56
2019-05-30T06:17:23.187Z,43.50
2019-05-30T06:19:52.800Z,43.54
2019-05-30T06:22:23.502Z,43.55
2019-05-30T06:24:53.234Z,43.53
2019-05-30T06:27:23.899Z,43.65
2019-05-30T06:29:53.831Z,43.58
2019-05-30T06:32:24.577Z,43.56
2019-05-30T06:34:54.198Z,43.64
2019-05-30T06:37:25.205Z,43.64
2019-05-30T06:39:55.156Z,43.69
2019-05-30T06:42:25.788Z,43.79
2019-05-30T06:44:55.407Z,43.84
2019-05-30T06:47:26.322Z,43.87
2019-05-30T06:49:55.992Z,43.90
2019-05-30T06:52:25.562Z,43.94
2019-05-30T06:54:55.107Z,43.97
2019-05-30T06:57:25.224Z,43.97
2019-05-30T06:59:55.012Z,43.98
2019-05-30T07:02:24.727Z,44.01
2019-05-30T07:04:56.698Z,44.13
2019-05-30T07:07:27.048Z,44.09
2019-05-30T07:09:56.923Z,44.12
2019-05-30T07:12:27.529Z,44.21
2019-05-30T07:14:57.117Z,44.22
2019-05-30T07:17:27.437Z,44.26
2019-05-30T07:19:57.002Z,44.33
2019-05-30T07:22:28.246Z,44.37
2019-05-30T07:24:57.922Z,44.41
2019-05-30T07:27:27.920Z,44.49
2019-05-30T07:29:57.476Z,44.45
2019-05-30T07:32:27.943Z,44.50
2019-05-30T07:35:07.023Z,44.46
2019-05-30T07:37:30.200Z,44.55
2019-05-30T07:39:59.924Z,44.58
2019-05-30T07:42:30.659Z,44.63
2019-05-30T07:45:00.254Z,44.59
2019-05-30T07:47:30.223Z,44.60
2019-05-30T07:49:59.975Z,44.73
2019-05-30T07:52:30.619Z,44.72
2019-05-30T07:55:00.305Z,44.71
2019-05-30T07:57:30.297Z,44.72
2019-05-30T08:00:00.203Z,44.77
2019-05-30T08:02:29.851Z,44.88
2019-05-30T08:04:59.462Z,44.83
2019-05-30T08:07:29.152Z,45.00
2019-05-30T08:09:58.864Z,45.31
2019-05-30T08:12:28.409Z,45.37
2019-05-30T08:14:58.021Z,45.30
2019-05-30T08:17:27.599Z,45.21
2019-05-30T08:19:57.247Z,45.35
2019-05-30T08:22:27.919Z,45.34
2019-05-30T08:24:57.862Z,45.74
2019-05-30T08:27:28.036Z,45.64
2019-05-30T08:29:57.703Z,45.72
2019-05-30T08:32:28.294Z,47.13
2019-05-30T08:34:57.979Z,47.11
2019-05-30T08:37:28.823Z,47.93
2019-05-30T08:39:58.510Z,47.68
2019-05-30T08:42:29.472Z,47.88
2019-05-30T08:44:59.107Z,48.29
2019-05-30T08:47:31.843Z,48.44
2019-05-30T08:50:00.357Z,48.08
2019-05-30T08:52:30.355Z,47.91
2019-05-30T08:54:59.939Z,47.86
2019-05-30T08:57:32.626Z,47.77
2019-05-30T09:00:02.231Z,47.77
2019-05-30T09:02:31.808Z,47.65
2019-05-30T09:05:01.453Z,47.58
2019-05-30T09:07:31.847Z,47.51
2019-05-30T09:10:01.473Z,47.40
2019-05-30T09:12:31.023Z,47.36
2019-05-30T09:15:00.871Z,47.32
2019-05-30T09:17:30.478Z,47.21
2019-05-30T09:20:00.376Z,47.23
2019-05-30T09:22:29.938Z,47.20
2019-05-30T09:24:59.507Z,47.28
2019-05-30T09:27:29.049Z,47.15
2019-05-30T09:29:58.629Z,47.17
2019-05-30T09:32:28.198Z,47.08
2019-05-30T09:34:57.832Z,47.10
2019-05-30T09:37:27.367Z,47.04
2019-05-30T09:39:56.911Z,47.02
2019-05-30T09:42:26.462Z,47.01
2019-05-30T09:44:56.024Z,46.98
2019-05-30T09:47:25.668Z,47.01
2019-05-30T09:49:55.327Z,46.95
2019-05-30T09:52:24.871Z,46.95
2019-05-30T09:54:54.411Z,46.83
2019-05-30T09:57:24.704Z,46.77
2019-05-30T09:59:54.269Z,46.76
2019-05-30T10:02:24.152Z,46.65
2019-05-30T10:04:54.655Z,46.69
2019-05-30T10:07:24.286Z,46.67
2019-05-30T10:09:53.892Z,46.62
2019-05-30T10:12:23.450Z,46.64
2019-05-30T10:14:53.113Z,46.59
2019-05-30T10:17:22.719Z,46.57
2019-05-30T10:19:53.045Z,46.56
2019-05-30T10:22:22.696Z,46.53
2019-05-30T10:24:53.269Z,46.58
2019-05-30T10:27:22.980Z,46.53
2019-05-30T10:29:53.364Z,46.51
2019-05-30T10:32:22.964Z,46.51
2019-05-30T10:34:53.823Z,46.59
2019-05-30T10:37:24.492Z,46.58
2019-05-30T10:39:57.820Z,46.58
2019-05-30T10:42:25.429Z,46.65
2019-05-30T10:44:56.353Z,46.56
2019-05-30T10:47:26.030Z,46.61
2019-05-30T10:49:55.916Z,46.55
2019-05-30T10:52:25.450Z,46.60
2019-05-30T10:54:55.617Z,46.59
2019-05-30T10:57:25.242Z,46.63
2019-05-30T10:59:54.784Z,46.57
2019-05-30T11:02:24.330Z,46.54
2019-05-30T11:04:54.969Z,46.55
2019-05-30T11:07:36.603Z,46.59
2019-05-30T11:10:09.582Z,46.54
2019-05-30T11:12:39.469Z,46.58
2019-05-30T11:15:09.215Z,46.57
2019-05-30T11:17:38.813Z,46.62
2019-05-30T11:20:08.475Z,47.18
2019-05-30T11:22:38.036Z,47.42
2019-05-30T11:25:07.656Z,47.33
2019-05-30T11:27:37.216Z,47.23
2019-05-30T11:30:07.015Z,47.12
2019-05-30T11:32:36.570Z,47.08
2019-05-30T11:35:06.428Z,47.12
2019-05-30T11:37:36.053Z,47.00
2019-05-30T11:40:05.824Z,47.06
2019-05-30T11:42:35.377Z,46.96
2019-05-30T11:45:05.444Z,47.02
2019-05-30T11:47:35.566Z,47.04
2019-05-30T11:50:05.479Z,47.01
2019-05-30T11:52:35.071Z,47.93
2019-05-30T11:55:05.074Z,48.46
2019-05-30T11:57:34.698Z,48.46
2019-05-30T12:00:04.509Z,48.43
2019-05-30T12:02:35.026Z,48.25
2019-05-30T12:05:04.954Z,48.57
2019-05-30T12:07:36.776Z,48.41
2019-05-30T12:10:06.013Z,48.30
2019-05-30T12:12:35.687Z,48.03
2019-05-30T12:15:05.647Z,47.85
2019-05-30T12:17:35.209Z,47.71
2019-05-30T12:20:05.194Z,47.61
2019-05-30T12:22:34.769Z,47.66
2019-05-30T12:25:04.559Z,47.46
2019-05-30T12:27:34.199Z,47.39
2019-05-30T12:30:03.799Z,47.30
2019-05-30T12:32:33.340Z,47.32
2019-05-30T12:35:02.972Z,47.27
2019-05-30T12:37:50.311Z,47.17
2019-05-30T12:40:07.165Z,47.20
2019-05-30T12:42:36.739Z,47.29
2019-05-30T12:45:07.338Z,47.55
2019-05-30T12:47:36.977Z,47.58
2019-05-30T12:50:06.589Z,47.73
2019-05-30T12:52:36.149Z,47.78
2019-05-30T12:55:06.841Z,47.83
2019-05-30T12:57:36.433Z,47.82
2019-05-30T13:00:13.564Z,47.91
2019-05-30T13:02:37.693Z,47.89
2019-05-30T13:05:07.314Z,47.78
2019-05-30T13:07:36.870Z,47.88
2019-05-30T13:10:07.639Z,47.96
2019-05-30T13:12:37.184Z,48.01
2019-05-30T13:15:06.746Z,48.10
2019-05-30T13:17:36.306Z,48.13
2019-05-30T13:20:07.901Z,48.16
2019-05-30T13:22:37.544Z,48.14
2019-05-30T13:25:07.388Z,48.07
2019-05-30T13:27:36.930Z,47.98
2019-05-30T13:30:07.491Z,47.94
2019-05-30T13:32:37.303Z,47.95
2019-05-30T13:35:07.675Z,47.94
2019-05-30T13:37:37.379Z,47.93
2019-05-30T13:40:23.633Z,47.85
2019-05-30T13:42:38.202Z,47.92
2019-05-30T13:45:08.439Z,47.86
2019-05-30T13:47:38.141Z,47.94
2019-05-30T13:50:12.673Z,47.94
2019-05-30T13:52:39.638Z,47.97
2019-05-30T13:55:10.843Z,47.95
2019-05-30T13:57:40.454Z,47.97
2019-05-30T14:00:10.624Z,47.92
2019-05-30T14:02:40.360Z,47.98
2019-05-30T14:05:10.528Z,47.98
2019-05-30T14:07:40.334Z,47.94
2019-05-30T14:10:10.748Z,47.92
2019-05-30T14:12:40.833Z,47.86
2019-05-30T14:15:14.055Z,47.86
2019-05-30T14:17:42.098Z,47.88
2019-05-30T14:20:11.775Z,47.85
2019-05-30T14:22:41.590Z,47.89
2019-05-30T14:25:11.773Z,47.84
2019-05-30T14:27:41.535Z,47.80
2019-05-30T14:30:11.290Z,47.66
2019-05-30T14:32:40.920Z,47.63
2019-05-30T14:35:11.993Z,47.62
2019-05-30T14:37:41.700Z,47.50
2019-05-30T14:40:11.483Z,47.54
2019-05-30T14:42:41.023Z,47.51
2019-05-30T14:45:10.876Z,47.47
2019-05-30T14:47:40.567Z,47.48
2019-05-30T14:50:11.024Z,47.38
2019-05-30T14:52:40.779Z,47.38
2019-05-30T14:55:11.138Z,47.34
2019-05-30T14:57:40.963Z,47.26
2019-05-30T15:00:13.428Z,47.28
2019-05-30T15:02:43.558Z,47.26
2019-05-30T15:05:13.709Z,47.22
2019-05-30T15:07:43.493Z,47.16
2019-05-30T15:10:13.400Z,47.16
2019-05-30T15:12:42.973Z,47.08
2019-05-30T15:15:15.107Z,47.01
2019-05-30T15:17:43.910Z,47.00
2019-05-30T15:20:15.045Z,46.85
2019-05-30T15:22:44.585Z,46.75
2019-05-30T15:25:16.497Z,46.76
2019-05-30T15:27:45.776Z,46.53
2019-05-30T15:30:16.885Z,46.37
2019-05-30T15:32:46.528Z,46.14
2019-05-30T15:35:18.954Z,46.18
2019-05-30T15:37:47.325Z,45.86
2019-05-30T15:40:17.257Z,45.79
2019-05-30T15:42:46.801Z,45.79
2019-05-30T15:45:17.979Z,45.72
2019-05-30T15:47:47.740Z,45.63
2019-05-30T15:50:18.737Z,45.50
2019-05-30T15:52:48.502Z,45.44
2019-05-30T15:55:19.297Z,45.51
2019-05-30T15:57:49.873Z,45.23
2019-05-30T16:00:19.976Z,45.11
2019-05-30T16:02:49.619Z,45.12
2019-05-30T16:05:19.163Z,45.07
2019-05-30T16:07:48.745Z,44.88
2019-05-30T16:10:18.991Z,45.06
2019-05-30T16:12:48.645Z,44.92
2019-05-30T16:15:19.498Z,44.85
2019-05-30T16:17:49.109Z,44.70
2019-05-30T16:20:19.923Z,44.79
2019-05-30T16:22:49.546Z,44.64
2019-05-30T16:25:19.736Z,44.60
2019-05-30T16:27:49.420Z,44.53
2019-05-30T16:30:23.534Z,44.53
2019-05-30T16:32:50.543Z,44.59
2019-05-30T16:35:20.266Z,44.61
2019-05-30T16:37:49.924Z,44.52
2019-05-30T16:40:20.342Z,44.56
2019-05-30T16:42:49.897Z,44.50
2019-05-30T16:45:23.177Z,44.54
2019-05-30T16:47:50.686Z,44.58
2019-05-30T16:50:22.756Z,44.64
2019-05-30T16:52:52.675Z,44.59
2019-05-30T16:55:23.339Z,44.58
2019-05-30T16:57:52.969Z,44.49
2019-05-30T17:00:22.532Z,44.45
2019-05-30T17:02:52.101Z,44.44
2019-05-30T17:05:21.718Z,44.45
2019-05-30T17:07:51.591Z,44.36
2019-05-30T17:10:27.695Z,44.30
2019-05-30T17:12:52.379Z,44.27
2019-05-30T17:15:22.078Z,44.19
2019-05-30T17:17:51.589Z,44.28
2019-05-30T17:20:22.465Z,44.39
2019-05-30T17:22:52.169Z,44.28
2019-05-30T17:25:21.713Z,44.38
2019-05-30T17:27:51.246Z,44.47
2019-05-30T17:30:21.608Z,44.53
2019-05-30T17:32:51.218Z,44.64
2019-05-30T17:35:21.963Z,44.71
2019-05-30T17:37:51.653Z,44.77
2019-05-30T17:40:35.627Z,44.75
2019-05-30T17:42:52.441Z,44.75
2019-05-30T17:45:23.131Z,44.78
2019-05-30T17:48:02.837Z,44.75
2019-05-30T17:50:24.071Z,44.65
2019-05-30T17:52:53.638Z,44.75
2019-05-30T17:55:23.884Z,44.76
2019-05-30T17:57:53.486Z,44.73
2019-05-30T18:00:24.333Z,44.79
2019-05-30T18:02:53.955Z,44.70
2019-05-30T18:05:24.597Z,44.68
2019-05-30T18:07:54.223Z,44.70
2019-05-30T18:10:24.919Z,44.68
2019-05-30T18:12:54.582Z,44.56
2019-05-30T18:15:26.240Z,44.51
2019-05-30T18:17:55.374Z,44.64
2019-05-30T18:20:25.327Z,44.61
2019-05-30T18:22:55.009Z,44.61
2019-05-30T18:25:25.627Z,44.57
2019-05-30T18:27:55.247Z,44.47
2019-05-30T18:30:38.266Z,44.50
2019-05-30T18:33:07.814Z,44.58
2019-05-30T18:35:37.417Z,44.50
2019-05-30T18:38:06.998Z,44.51
2019-05-30T18:40:37.411Z,44.42
2019-05-30T18:43:06.978Z,44.37
2019-05-30T18:45:38.349Z,44.35
2019-05-30T18:48:08.774Z,44.31
2019-05-30T18:50:38.530Z,44.29
2019-05-30T18:53:08.082Z,44.37
2019-05-30T18:55:37.655Z,44.24
2019-05-30T18:58:07.748Z,44.22
2019-05-30T19:00:37.676Z,44.13
2019-05-30T19:03:07.272Z,44.29
2019-05-30T19:05:37.093Z,44.26
2019-05-30T19:08:06.743Z,44.24
2019-05-30T19:10:36.702Z,44.22
2019-05-30T19:13:06.313Z,44.16
2019-05-30T19:15:35.869Z,44.11
2019-05-30T19:18:08.989Z,44.11
2019-05-30T19:20:36.807Z,44.07
2019-05-30T19:23:06.373Z,44.07
2019-05-30T19:25:35.938Z,44.04
2019-05-30T19:28:05.558Z,44.04
2019-05-30T19:30:35.110Z,44.04
2019-05-30T19:33:05.229Z,43.97
2019-05-30T19:35:35.305Z,44.02
2019-05-30T19:38:05.358Z,44.03
2019-05-30T19:40:35.835Z,44.04
2019-05-30T19:43:05.507Z,44.03
2019-05-30T19:45:36.140Z,44.03
2019-05-30T19:48:05.742Z,44.01
2019-05-30T19:50:35.292Z,44.01
2019-05-30T19:53:04.830Z,44.01
2019-05-30T19:55:35.280Z,44.03
2019-05-30T19:58:04.921Z,44.03
2019-05-30T20:00:53.452Z,44.16
2019-05-30T20:03:06.390Z,44.21
2019-05-30T20:05:36.699Z,44.25
2019-05-30T20:08:06.298Z,44.23
2019-05-30T20:10:37.126Z,44.34
2019-05-30T20:13:07.547Z,44.20
2019-05-30T20:15:37.734Z,44.29
2019-05-30T20:18:07.483Z,44.30
2019-05-30T20:20:50.629Z,44.42
2019-05-30T20:23:08.750Z,44.57
2019-05-30T20:25:41.891Z,44.61
2019-05-30T20:28:09.610Z,44.58
2019-05-30T20:30:39.243Z,44.53
2019-05-30T20:33:08.763Z,44.51
2019-05-30T20:35:39.818Z,44.57
2019-05-30T20:38:09.651Z,44.63
2019-05-30T20:40:39.278Z,44.67
2019-05-30T20:43:09.162Z,44.66
2019-05-30T20:45:45.155Z,44.58
2019-05-30T20:48:10.477Z,44.53
2019-05-30T20:50:41.148Z,44.53
2019-05-30T20:53:10.832Z,44.46
2019-05-30T20:55:40.505Z,44.44
2019-05-30T20:58:10.125Z,44.42
2019-05-30T21:00:40.438Z,44.38
2019-05-30T21:03:11.288Z,44.39
2019-05-30T21:05:42.001Z,44.37
2019-05-30T21:08:11.686Z,44.40
2019-05-30T21:10:41.386Z,44.40
2019-05-30T21:13:11.260Z,44.40
2019-05-30T21:15:41.664Z,44.40
2019-05-30T21:18:11.769Z,44.38
2019-05-30T21:20:42.109Z,44.37
2019-05-30T21:23:11.734Z,44.37
2019-05-30T21:25:41.304Z,44.38
2019-05-30T21:28:10.830Z,44.40
2019-05-30T21:30:41.278Z,44.38
2019-05-30T21:33:10.948Z,44.38
2019-05-30T21:35:41.772Z,44.35
2019-05-30T21:38:11.427Z,44.35
2019-05-30T21:40:42.362Z,44.37
2019-05-30T21:43:11.983Z,44.31
2019-05-30T21:45:42.550Z,44.31
2019-05-30T21:48:12.098Z,44.29
2019-05-30T21:50:45.245Z,44.27
2019-05-30T21:53:13.198Z,44.26
2019-05-30T21:55:43.850Z,44.26
2019-05-30T21:58:13.565Z,44.23
2019-05-30T22:01:36.690Z,44.21
2019-05-30T22:04:06.512Z,44.19
2019-05-30T22:06:36.334Z,44.17
2019-05-30T22:09:12.725Z,44.16
2019-05-30T22:11:43.640Z,44.15
2019-05-30T22:14:13.308Z,44.12
2019-05-30T22:16:43.942Z,44.10
2019-05-30T22:19:14.045Z,44.12
2019-05-30T22:21:44.158Z,44.07
2019-05-30T22:24:13.812Z,44.09
2019-05-30T22:26:44.272Z,44.09
2019-05-30T22:29:14.103Z,44.04
2019-05-30T22:31:44.661Z,44.04
2019-05-30T22:34:14.310Z,44.03
2019-05-30T22:36:44.638Z,44.03
2019-05-30T22:39:14.239Z,44.03
2019-05-30T22:41:43.921Z,44.01
2019-05-30T22:44:13.698Z,44.02
2019-05-30T22:46:44.055Z,44.02
2019-05-30T22:49:13.689Z,44.03
2019-05-30T22:51:43.243Z,44.09
2019-05-30T22:54:12.783Z,44.16
2019-05-30T22:56:42.329Z,44.18
2019-05-30T22:59:30.269Z,44.21
2019-05-30T23:01:59.831Z,44.27
2019-05-30T23:04:29.739Z,44.31
2019-05-30T23:06:59.278Z,44.34
2019-05-30T23:09:29.126Z,44.37
2019-05-30T23:11:58.677Z,44.37
2019-05-30T23:14:28.612Z,44.39
2019-05-30T23:16:58.207Z,44.36
2019-05-30T23:19:28.122Z,44.35
2019-05-30T23:21:57.718Z,44.35
2019-05-30T23:24:27.631Z,44.35
2019-05-30T23:26:57.965Z,44.38
2019-05-30T23:29:27.601Z,44.38
2019-05-30T23:31:58.330Z,44.39
2019-05-30T23:34:28.232Z,44.40
2019-05-30T23:36:58.750Z,44.40
2019-05-30T23:39:28.354Z,44.43
2019-05-30T23:41:59.329Z,44.42
2019-05-30T23:44:29.041Z,44.43
2019-05-30T23:46:59.725Z,44.43
2019-05-30T23:49:29.322Z,44.44
2019-05-30T23:52:00.312Z,44.46
2019-05-30T23:54:30.032Z,44.50
2019-05-30T23:57:00.848Z,44.49
2019-05-30T23:59:30.505Z,44.50
